| Date | Time | Temp. (oF) | Dew Point (oF) | Rel. Hum. (%) | Press. (in.) | Wind Dir. | Wind Speed (mph) | Hourly Rainfall (in.) |
|
|---|---|---|---|---|---|---|---|---|---|
| 1 | 11/14 | 00:00 | 31 | 25 | 79 | 30.14 | NNE | 0 | 0.00 |
| 2 | 11/13 | 23:00 | 32 | 24 | 75 | 30.13 | WSW | 0 | 0.00 |
| 3 | 11/13 | 22:00 | 34 | 24 | 69 | 30.13 | NW | 0 | 0.00 |
| 4 | 11/13 | 21:00 | 36 | 24 | 64 | 30.12 | W | 0 | 0.00 |
| 5 | 11/13 | 20:00 | 39 | 24 | 56 | 30.12 | WSW | 0 | 0.00 |
| 6 | 11/13 | 19:00 | 43 | 24 | 47 | 30.12 | WSW | 0 | 0.00 |
| 7 | 11/13 | 18:00 | 47 | 23 | 39 | 30.12 | SW | 0 | 0.00 |
| 8 | 11/13 | 17:00 | 53 | 22 | 31 | 30.11 | WSW | 0 | 0.00 |
| 9 | 11/13 | 16:00 | 58 | 23 | 27 | 30.10 | SW | 3 | 0.00 |
| 10 | 11/13 | 15:00 | 58 | 24 | 28 | 30.12 | SW | 6 | 0.00 |
| 11 | 11/13 | 14:00 | 59 | 27 | 30 | 30.14 | WSW | 4 | 0.00 |
| 12 | 11/13 | 13:00 | 57 | 27 | 32 | 30.17 | NW | 4 | 0.00 |
| 13 | 11/13 | 12:00 | 54 | 26 | 35 | 30.21 | N | 7 | 0.00 |
| 14 | 11/13 | 11:00 | 51 | 27 | 40 | 30.24 | NW | 12 | 0.00 |
| 15 | 11/13 | 10:00 | 46 | 30 | 54 | 30.26 | NNW | 7 | 0.00 |
| 16 | 11/13 | 09:00 | 37 | 31 | 80 | 30.27 | SSW | 0 | 0.00 |
| 17 | 11/13 | 08:00 | 27 | 25 | 94 | 30.27 | SSW | 0 | 0.00 |
| 18 | 11/13 | 07:00 | 24 | 22 | 92 | 30.26 | N | 0 | 0.00 |
| 19 | 11/13 | 06:00 | 25 | 22 | 90 | 30.25 | WNW | 0 | 0.00 |
| 20 | 11/13 | 05:00 | 26 | 23 | 89 | 30.25 | NNW | 0 | 0.00 |
| 21 | 11/13 | 04:00 | 27 | 23 | 87 | 30.24 | SSW | 0 | 0.00 |
| 22 | 11/13 | 03:00 | 28 | 24 | 86 | 30.25 | NNW | 0 | 0.00 |
| 23 | 11/13 | 02:00 | 28 | 24 | 85 | 30.26 | W | 0 | 0.00 |
| 24 | 11/13 | 01:00 | 28 | 24 | 88 | 30.26 | N | 0 | 0.00 |